Aviation Digital Data Service (ADDS)

Output produced by METARs form (1025 UTC 25 October 2020)
found at http://aviationweather.gov/metar/data/
 
METAR text: KAUN 251015Z AUTO 11004KT 10SM CLR 11/07 A2993 RMK A01
Conditions at: KAUN (AUBURN MUNI , CA, US) observed 1015 UTC 25 October 2020
Temperature: 11.0°C (52°F)
Dewpoint: 7.0°C (45°F) [RH = 76%]
Pressure (altimeter): 29.93 inches Hg (1013.6 mb)
Winds: from the ESE (110 degrees) at 5 MPH (4 knots; 2.1 m/s)
Visibility: 10 or more miles (16+ km)
Ceiling: at least 12,000 feet AGL
Clouds: sky clear below 12,000 feet AGL
Weather: automated observation with no human augmentation;
there may or may not be significant weather present at this time